Time;durP1;ratioP1;P1;durP2;ratioP2;P2;SDS_P1;SDS_P2;PMS_P1;PMS_P2;Temp;Humidity;BMP_temperature;BMP_pressure;BME280_temperature;BME280_humidity;BME280_pressure;Samples;Min_cycle;Max_cycle;Signal;HPM_P1;HPM_P2
2020/12/28 00:00:47;;;;;;;0.40;0.40;;;5.70;99.90;;;;;;5012456;28;20188;-65
2020/12/28 00:03:13;;;;;;;1.10;0.50;;;5.80;99.90;;;;;;5018151;28;20211;-65
2020/12/28 00:05:39;;;;;;;0.63;0.40;;;5.80;99.90;;;;;;5022656;28;20176;-65
2020/12/28 00:08:04;;;;;;;0.30;0.30;;;5.70;99.90;;;;;;5029280;28;20246;-65
2020/12/28 00:10:30;;;;;;;1.20;0.50;;;5.80;99.90;;;;;;5020284;28;20231;-65
2020/12/28 00:12:55;;;;;;;1.17;0.50;;;5.80;99.90;;;;;;5020374;28;20184;-66
2020/12/28 00:15:28;;;;;;;1.27;0.67;;;5.80;99.90;;;;;;5025935;28;20242;-66
2020/12/28 00:17:56;;;;;;;1.43;0.60;;;5.70;99.90;;;;;;5021540;28;20634;-66
2020/12/28 00:20:25;;;;;;;1.40;0.50;;;5.70;99.90;;;;;;5023259;28;20580;-66
2020/12/28 00:22:51;;;;;;;0.60;0.57;;;5.80;99.90;;;;;;5025918;28;20415;-66
2020/12/28 00:25:21;;;;;;;1.10;0.60;;;5.80;99.90;;;;;;5020974;28;20770;-65
2020/12/28 00:27:47;;;;;;;0.53;0.50;;;5.80;99.90;;;;;;5021071;28;20430;-64
2020/12/28 00:30:13;;;;;;;1.10;0.40;;;5.80;99.90;;;;;;5029670;28;20539;-65
2020/12/28 00:32:39;;;;;;;0.63;0.60;;;5.80;99.90;;;;;;5021875;28;20931;-65
2020/12/28 00:35:06;;;;;;;2.00;0.50;;;5.80;99.90;;;;;;5028963;28;20230;-65
2020/12/28 00:37:32;;;;;;;1.20;0.47;;;5.70;99.90;;;;;;5020257;28;20250;-63
2020/12/28 00:39:58;;;;;;;2.33;0.80;;;5.80;99.90;;;;;;5026423;28;20416;-64
2020/12/28 00:42:24;;;;;;;0.80;0.40;;;5.80;99.90;;;;;;5023996;28;20840;-63
2020/12/28 00:44:50;;;;;;;1.20;0.60;;;5.70;99.90;;;;;;5023122;28;20181;-65
2020/12/28 00:47:16;;;;;;;0.33;0.33;;;5.70;99.90;;;;;;5026185;28;20641;-64
2020/12/28 00:49:42;;;;;;;0.43;0.40;;;5.70;99.90;;;;;;5018483;28;20411;-63
2020/12/28 00:52:08;;;;;;;0.50;0.40;;;5.70;99.90;;;;;;5024447;28;20775;-66
2020/12/28 00:54:34;;;;;;;1.13;0.50;;;5.60;99.90;;;;;;5029860;28;20226;-64
2020/12/28 00:57:00;;;;;;;1.20;0.53;;;5.60;99.90;;;;;;5028520;28;20618;-66
2020/12/28 00:59:26;;;;;;;0.73;0.47;;;5.60;99.90;;;;;;5013429;28;20179;-63
2020/12/28 01:01:56;;;;;;;0.50;0.50;;;5.50;99.90;;;;;;5021039;28;20410;-66
2020/12/28 01:04:21;;;;;;;1.43;0.60;;;5.50;99.90;;;;;;5032826;28;20207;-64
2020/12/28 01:06:47;;;;;;;0.90;0.70;;;5.50;99.90;;;;;;5023374;28;20502;-65
2020/12/28 01:09:13;;;;;;;0.57;0.40;;;5.50;99.90;;;;;;5012617;28;20214;-67
2020/12/28 01:11:39;;;;;;;0.57;0.50;;;5.50;99.90;;;;;;5027427;28;20606;-66
2020/12/28 01:14:04;;;;;;;0.40;0.37;;;5.50;99.90;;;;;;5032069;28;20191;-65
2020/12/28 01:16:30;;;;;;;0.73;0.50;;;5.50;99.90;;;;;;5026318;28;20173;-65
2020/12/28 01:18:55;;;;;;;0.60;0.40;;;5.60;99.90;;;;;;5023804;28;20641;-65
2020/12/28 01:21:22;;;;;;;0.40;0.30;;;5.60;99.90;;;;;;5028701;28;20172;-65
2020/12/28 01:23:47;;;;;;;1.07;0.70;;;5.60;99.90;;;;;;5016284;28;20191;-66
2020/12/28 01:26:14;;;;;;;2.20;0.40;;;5.50;99.90;;;;;;5027675;28;20410;-65
2020/12/28 01:28:40;;;;;;;1.47;0.40;;;5.50;99.90;;;;;;5019160;28;20181;-65
2020/12/28 01:31:06;;;;;;;1.03;0.53;;;5.50;99.90;;;;;;5024928;28;20791;-67
2020/12/28 01:33:31;;;;;;;0.70;0.40;;;5.50;99.90;;;;;;5023553;28;20603;-64
2020/12/28 01:35:57;;;;;;;0.90;0.50;;;5.60;99.90;;;;;;5012540;28;20243;-66
2020/12/28 01:38:22;;;;;;;0.80;0.60;;;5.60;99.90;;;;;;5013702;28;20160;-66
2020/12/28 01:40:48;;;;;;;0.87;0.47;;;5.60;99.90;;;;;;5030524;28;20210;-65
2020/12/28 01:43:13;;;;;;;1.60;0.47;;;5.60;99.90;;;;;;5025879;28;20187;-65
2020/12/28 01:45:39;;;;;;;1.00;0.70;;;5.60;99.90;;;;;;5031527;28;20187;-65
2020/12/28 01:48:04;;;;;;;1.13;0.43;;;5.60;99.90;;;;;;5026132;28;20549;-64
2020/12/28 01:50:30;;;;;;;1.23;0.60;;;5.70;99.90;;;;;;5014133;28;20286;-65
2020/12/28 01:52:56;;;;;;;0.70;0.53;;;5.70;99.90;;;;;;5023105;28;20206;-65
2020/12/28 01:55:22;;;;;;;0.50;0.50;;;5.70;99.90;;;;;;5031294;28;20176;-66
2020/12/28 01:57:48;;;;;;;0.97;0.63;;;5.70;99.90;;;;;;5020378;28;20180;-64
2020/12/28 02:00:13;;;;;;;0.70;0.50;;;5.70;99.90;;;;;;5022859;28;20314;-64
2020/12/28 02:02:40;;;;;;;1.53;0.60;;;5.60;99.90;;;;;;5027174;28;20959;-65
2020/12/28 02:05:05;;;;;;;1.00;0.60;;;5.60;99.90;;;;;;5032861;28;20223;-64
2020/12/28 02:07:37;;;;;;;0.60;0.60;;;5.60;99.90;;;;;;5022744;28;20434;-65
2020/12/28 02:10:09;;;;;;;0.77;0.77;;;5.60;99.90;;;;;;5025698;28;20554;-67
2020/12/28 02:12:36;;;;;;;2.00;0.70;;;5.50;99.90;;;;;;5026857;28;20425;-65
2020/12/28 02:15:03;;;;;;;1.23;0.50;;;5.50;99.90;;;;;;5022693;28;20561;-66
2020/12/28 02:17:29;;;;;;;1.27;0.80;;;5.50;99.90;;;;;;5019739;28;20425;-64
2020/12/28 02:19:55;;;;;;;0.47;0.47;;;5.50;99.90;;;;;;5019896;28;20921;-64
2020/12/28 02:22:20;;;;;;;1.00;0.47;;;5.50;99.90;;;;;;5011320;28;20177;-64
2020/12/28 02:24:46;;;;;;;1.27;0.60;;;5.40;99.90;;;;;;5026144;28;20186;-66
2020/12/28 02:27:11;;;;;;;1.37;0.50;;;5.40;99.90;;;;;;5015420;28;20267;-65
2020/12/28 02:29:37;;;;;;;0.50;0.50;;;5.40;99.90;;;;;;5015258;28;20176;-67
2020/12/28 02:32:03;;;;;;;0.60;0.60;;;5.40;99.90;;;;;;5016702;28;20185;-66
2020/12/28 02:34:28;;;;;;;0.70;0.50;;;5.40;99.90;;;;;;5020928;28;20180;-64
2020/12/28 02:36:54;;;;;;;0.87;0.70;;;5.40;99.90;;;;;;5023061;28;20176;-65
2020/12/28 02:39:19;;;;;;;0.77;0.60;;;5.40;99.90;;;;;;5014074;28;20181;-65
2020/12/28 02:41:45;;;;;;;1.30;0.70;;;5.40;99.90;;;;;;5016425;28;20211;-66
2020/12/28 02:44:11;;;;;;;0.93;0.60;;;5.40;99.90;;;;;;5017897;28;20183;-65
2020/12/28 02:46:36;;;;;;;1.10;0.70;;;5.40;99.90;;;;;;5013654;28;20177;-64
2020/12/28 02:49:02;;;;;;;1.20;0.60;;;5.40;99.90;;;;;;5021220;28;20663;-66
2020/12/28 02:51:28;;;;;;;1.53;0.60;;;5.40;99.90;;;;;;5024103;28;20291;-65
2020/12/28 02:53:53;;;;;;;0.97;0.73;;;5.30;99.90;;;;;;5026129;28;20168;-65
2020/12/28 02:56:19;;;;;;;1.07;0.80;;;5.30;99.90;;;;;;5019475;28;20258;-64
2020/12/28 02:58:44;;;;;;;1.97;0.70;;;5.40;99.90;;;;;;5017358;28;20177;-65
2020/12/28 03:01:10;;;;;;;1.20;0.80;;;5.40;99.90;;;;;;5025602;28;20179;-65
2020/12/28 03:03:35;;;;;;;1.63;1.40;;;5.30;99.90;;;;;;5011998;28;20204;-64
2020/12/28 03:06:07;;;;;;;1.10;0.50;;;5.30;99.90;;;;;;5024515;28;20756;-65
2020/12/28 03:08:32;;;;;;;0.50;0.50;;;5.30;99.90;;;;;;5020761;28;20266;-65
2020/12/28 03:10:58;;;;;;;0.80;0.60;;;5.40;99.90;;;;;;5030054;28;20558;-65
2020/12/28 03:13:24;;;;;;;1.03;0.50;;;5.40;99.90;;;;;;5015935;28;20172;-65
2020/12/28 03:15:49;;;;;;;0.60;0.60;;;5.40;99.90;;;;;;5018148;28;20180;-65
2020/12/28 03:18:15;;;;;;;0.43;0.43;;;5.40;99.90;;;;;;5018941;28;20531;-66
2020/12/28 03:20:40;;;;;;;0.50;0.40;;;5.40;99.90;;;;;;5010552;28;20185;-65
2020/12/28 03:23:06;;;;;;;0.73;0.53;;;5.40;99.90;;;;;;5021727;28;20187;-64
2020/12/28 03:25:32;;;;;;;0.73;0.57;;;5.40;99.90;;;;;;5016488;28;20712;-67
2020/12/28 03:27:57;;;;;;;0.90;0.60;;;5.40;99.90;;;;;;5023574;28;20259;-66
2020/12/28 03:30:23;;;;;;;0.40;0.40;;;5.40;99.90;;;;;;5025462;28;20669;-66
2020/12/28 03:32:48;;;;;;;0.70;0.47;;;5.40;99.90;;;;;;5023511;28;20259;-64
2020/12/28 03:35:14;;;;;;;0.97;0.50;;;5.40;99.90;;;;;;5024193;28;20177;-64
2020/12/28 03:37:39;;;;;;;0.50;0.50;;;5.40;99.90;;;;;;5030877;28;20568;-64
2020/12/28 03:40:05;;;;;;;0.30;0.30;;;5.40;99.90;;;;;;5022040;28;20173;-63
2020/12/28 03:42:31;;;;;;;1.33;0.40;;;5.50;99.90;;;;;;5029491;28;20270;-65
2020/12/28 03:44:57;;;;;;;0.67;0.40;;;5.60;99.90;;;;;;5029610;28;20176;-65
2020/12/28 03:47:22;;;;;;;0.87;0.50;;;5.60;99.90;;;;;;5032650;28;21340;-65
2020/12/28 03:49:48;;;;;;;0.90;0.50;;;5.50;99.90;;;;;;5026487;28;20182;-64
2020/12/28 03:52:14;;;;;;;0.50;0.50;;;5.40;99.90;;;;;;5015539;28;20184;-66
2020/12/28 03:54:39;;;;;;;0.43;0.40;;;5.40;99.90;;;;;;5028765;28;20406;-65
2020/12/28 03:57:05;;;;;;;0.63;0.50;;;5.30;99.90;;;;;;5029364;28;20181;-65
2020/12/28 03:59:31;;;;;;;0.60;0.50;;;5.30;99.90;;;;;;5024811;28;20196;-66
2020/12/28 04:01:56;;;;;;;0.40;0.40;;;5.30;99.90;;;;;;5023530;28;20214;-66
2020/12/28 04:04:22;;;;;;;0.53;0.40;;;5.30;99.90;;;;;;5018721;28;20685;-66
2020/12/28 04:06:47;;;;;;;0.30;0.30;;;5.30;99.90;;;;;;5008213;28;20180;-65
2020/12/28 04:09:13;;;;;;;0.40;0.40;;;5.30;99.90;;;;;;5005557;28;20264;-66
2020/12/28 04:11:39;;;;;;;0.50;0.50;;;5.20;99.90;;;;;;5009679;28;20208;-65
2020/12/28 04:14:04;;;;;;;0.40;0.40;;;5.20;99.90;;;;;;5004054;28;20661;-65
2020/12/28 04:16:30;;;;;;;0.50;0.50;;;5.10;99.90;;;;;;5008118;28;20635;-65
2020/12/28 04:18:56;;;;;;;0.33;0.33;;;5.10;99.90;;;;;;5008499;28;20173;-64
2020/12/28 04:21:21;;;;;;;0.83;0.40;;;5.10;99.90;;;;;;5010646;28;20183;-65
2020/12/28 04:23:47;;;;;;;0.40;0.40;;;5.10;99.90;;;;;;5007873;28;20208;-66
2020/12/28 04:26:13;;;;;;;0.53;0.50;;;5.20;99.90;;;;;;4999667;28;20643;-64
2020/12/28 04:28:38;;;;;;;1.10;0.70;;;5.30;99.90;;;;;;5005050;28;20188;-66
2020/12/28 04:31:09;;;;;;;3.03;0.50;;;5.20;99.90;;;;;;5002033;28;20197;-65
2020/12/28 04:33:35;;;;;;;0.50;0.50;;;5.30;99.90;;;;;;5001932;28;20172;-66
2020/12/28 04:36:00;;;;;;;0.80;0.50;;;5.30;99.90;;;;;;5013404;28;20420;-64
2020/12/28 04:38:26;;;;;;;0.70;0.50;;;5.30;99.90;;;;;;5005732;28;20773;-65
2020/12/28 04:40:52;;;;;;;0.67;0.60;;;5.30;99.90;;;;;;5006146;28;20177;-65
2020/12/28 04:43:17;;;;;;;1.37;0.60;;;5.30;99.90;;;;;;5006813;28;20172;-64
2020/12/28 04:45:43;;;;;;;1.60;0.50;;;5.30;99.90;;;;;;4994798;28;20173;-65
2020/12/28 04:48:16;;;;;;;0.50;0.47;;;5.30;99.90;;;;;;5005078;28;20227;-65
2020/12/28 04:50:41;;;;;;;0.43;0.40;;;5.30;99.90;;;;;;4998374;28;20251;-66
2020/12/28 04:53:07;;;;;;;0.60;0.60;;;5.30;99.90;;;;;;5001394;28;20416;-64
2020/12/28 04:55:33;;;;;;;0.80;0.50;;;5.30;99.90;;;;;;5009984;28;20254;-65
2020/12/28 04:57:59;;;;;;;0.83;0.60;;;5.30;99.90;;;;;;4999683;28;20181;-64
2020/12/28 05:00:25;;;;;;;0.70;0.53;;;5.40;99.90;;;;;;4997314;28;20196;-65
2020/12/28 05:02:51;;;;;;;0.50;0.50;;;5.30;99.90;;;;;;5005247;28;20427;-67
2020/12/28 05:05:17;;;;;;;0.40;0.40;;;5.30;99.90;;;;;;5010448;28;20455;-65
2020/12/28 05:07:52;;;;;;;1.70;0.50;;;5.30;99.90;;;;;;5012296;28;20184;-65
2020/12/28 05:10:21;;;;;;;0.30;0.30;;;5.30;99.90;;;;;;5012649;28;20670;-66
2020/12/28 05:12:46;;;;;;;0.60;0.50;;;5.30;99.90;;;;;;5012299;28;20415;-65
2020/12/28 05:15:12;;;;;;;0.43;0.43;;;5.30;99.90;;;;;;5012473;28;20420;-66
2020/12/28 05:17:39;;;;;;;0.67;0.50;;;5.30;99.90;;;;;;5013106;28;20177;-65
2020/12/28 05:20:05;;;;;;;0.47;0.47;;;5.30;99.90;;;;;;5012230;28;20173;-65
2020/12/28 05:22:31;;;;;;;0.53;0.40;;;5.40;99.90;;;;;;5012467;28;20414;-64
2020/12/28 05:24:57;;;;;;;0.50;0.50;;;5.40;99.90;;;;;;5012201;28;20187;-65
2020/12/28 05:27:24;;;;;;;0.57;0.57;;;5.50;99.90;;;;;;4994516;28;20925;-64
2020/12/28 05:29:50;;;;;;;0.40;0.40;;;5.50;99.90;;;;;;5012490;28;20203;-65
2020/12/28 05:32:17;;;;;;;0.67;0.33;;;5.50;99.90;;;;;;5011811;28;20431;-64
2020/12/28 05:34:44;;;;;;;2.37;0.50;;;5.50;99.90;;;;;;5011946;28;20419;-65
2020/12/28 05:37:12;;;;;;;3.07;0.60;;;5.50;99.90;;;;;;5011928;28;20408;-64
2020/12/28 05:39:40;;;;;;;0.83;0.30;;;5.50;99.90;;;;;;5012108;28;20407;-66
2020/12/28 05:42:10;;;;;;;2.83;1.20;;;5.40;99.90;;;;;;5012124;28;20423;-64
2020/12/28 05:44:40;;;;;;;1.63;1.20;;;5.30;99.90;;;;;;5012015;28;20423;-65
2020/12/28 05:47:14;;;;;;;3.07;1.10;;;5.30;99.90;;;;;;5011861;28;20897;-63
2020/12/28 05:49:46;;;;;;;1.70;1.00;;;5.20;99.90;;;;;;5011733;28;20423;-65
2020/12/28 05:52:13;;;;;;;3.33;1.10;;;5.20;99.90;;;;;;5011239;28;20486;-64
2020/12/28 05:54:39;;;;;;;1.10;0.93;;;5.20;99.90;;;;;;5011622;28;20478;-64
2020/12/28 05:57:06;;;;;;;1.10;0.90;;;5.20;99.90;;;;;;5011963;28;20439;-64
2020/12/28 05:59:32;;;;;;;0.93;0.83;;;5.30;99.90;;;;;;5011880;28;20431;-64
2020/12/28 06:01:59;;;;;;;1.43;0.90;;;5.30;99.90;;;;;;5009194;28;20511;-65
2020/12/28 06:04:25;;;;;;;1.73;1.10;;;5.30;99.90;;;;;;5013887;28;20462;-66
2020/12/28 06:07:00;;;;;;;2.23;1.37;;;5.30;99.90;;;;;;5022552;28;20414;-65
2020/12/28 06:09:26;;;;;;;2.20;0.90;;;5.30;99.90;;;;;;5015417;28;20490;-66
2020/12/28 06:12:09;;;;;;;1.30;1.10;;;5.30;99.90;;;;;;5017346;28;20466;-66
2020/12/28 06:14:40;;;;;;;1.90;1.27;;;5.40;99.90;;;;;;5026050;28;20422;-65
2020/12/28 06:17:08;;;;;;;2.10;1.00;;;5.30;99.90;;;;;;5019646;28;20415;-65
2020/12/28 06:19:34;;;;;;;1.20;0.93;;;5.30;99.90;;;;;;5025550;28;20418;-66
2020/12/28 06:22:00;;;;;;;4.07;2.47;;;5.30;99.90;;;;;;5027950;28;20798;-65
2020/12/28 06:24:26;;;;;;;2.17;1.40;;;5.30;99.90;;;;;;5018860;28;20418;-64
2020/12/28 06:27:06;;;;;;;2.00;1.00;;;5.30;99.90;;;;;;5020173;28;20243;-64
2020/12/28 06:29:33;;;;;;;1.00;0.80;;;5.20;99.90;;;;;;5016772;28;20986;-67
2020/12/28 06:32:10;;;;;;;1.73;0.70;;;5.30;99.90;;;;;;5027490;28;20505;-67
2020/12/28 06:34:36;;;;;;;1.23;0.80;;;5.20;99.90;;;;;;5023429;28;20498;-64
2020/12/28 06:37:02;;;;;;;1.50;0.97;;;5.20;99.90;;;;;;5012478;28;20502;-64
2020/12/28 06:39:28;;;;;;;0.83;0.60;;;5.30;99.90;;;;;;5027969;28;20594;-65
2020/12/28 06:42:05;;;;;;;1.80;0.50;;;5.30;99.90;;;;;;5020212;28;20259;-64
2020/12/28 06:44:32;;;;;;;0.60;0.60;;;5.30;99.90;;;;;;5019687;28;20468;-63
2020/12/28 06:46:57;;;;;;;0.60;0.60;;;5.40;99.90;;;;;;5023886;28;20513;-66
2020/12/28 06:49:23;;;;;;;0.93;0.73;;;5.40;99.90;;;;;;5030310;28;20505;-66
2020/12/28 06:51:48;;;;;;;0.70;0.63;;;5.40;99.90;;;;;;5030511;28;20724;-66
2020/12/28 06:54:21;;;;;;;0.90;0.70;;;5.40;99.90;;;;;;5017251;28;20180;-63
2020/12/28 06:56:47;;;;;;;1.37;0.73;;;5.40;99.90;;;;;;5011120;28;20718;-65
2020/12/28 06:59:13;;;;;;;1.23;0.73;;;5.40;99.90;;;;;;5029156;28;20414;-64
2020/12/28 07:01:45;;;;;;;0.80;0.80;;;5.30;99.90;;;;;;5031049;28;20509;-65
2020/12/28 07:04:12;;;;;;;2.17;1.00;;;5.30;99.90;;;;;;5013212;28;20278;-66
2020/12/28 07:06:39;;;;;;;0.50;0.50;;;5.40;99.90;;;;;;5014421;28;20426;-66
2020/12/28 07:09:08;;;;;;;2.57;0.90;;;5.30;99.90;;;;;;5014629;28;20511;-63
2020/12/28 07:11:34;;;;;;;1.53;1.03;;;5.30;99.90;;;;;;5014401;28;20455;-66
2020/12/28 07:14:04;;;;;;;1.60;1.00;;;5.30;99.90;;;;;;4998645;28;20412;-66
2020/12/28 07:16:31;;;;;;;1.57;1.07;;;5.20;99.90;;;;;;4995160;28;20766;-65
2020/12/28 07:19:03;;;;;;;1.30;1.00;;;5.30;99.90;;;;;;4994800;28;20443;-63
2020/12/28 07:21:29;;;;;;;1.00;0.90;;;5.30;99.90;;;;;;5009911;28;20874;-63
2020/12/28 07:23:56;;;;;;;2.87;1.00;;;5.30;99.90;;;;;;5014346;28;20415;-65
2020/12/28 07:26:22;;;;;;;1.67;1.20;;;5.30;99.90;;;;;;5014427;28;20200;-66
2020/12/28 07:28:48;;;;;;;2.97;1.40;;;5.30;99.90;;;;;;5014461;28;20509;-65
2020/12/28 07:31:13;;;;;;;2.93;1.50;;;5.30;99.90;;;;;;5014263;28;20650;-64
2020/12/28 07:33:46;;;;;;;2.07;1.40;;;5.30;99.90;;;;;;5014179;28;20415;-65
2020/12/28 07:36:14;;;;;;;1.83;1.30;;;5.30;99.90;;;;;;5014115;28;20169;-65
2020/12/28 07:38:45;;;;;;;1.63;1.23;;;5.30;99.90;;;;;;5014275;28;20486;-65
2020/12/28 07:41:23;;;;;;;2.37;1.37;;;5.30;99.90;;;;;;5013966;28;20415;-63
2020/12/28 07:43:50;;;;;;;1.90;1.30;;;5.30;99.90;;;;;;5010801;28;20419;-64
2020/12/28 07:46:21;;;;;;;2.27;1.67;;;5.30;99.90;;;;;;5012371;28;20514;-63
2020/12/28 07:48:51;;;;;;;2.10;1.77;;;5.30;99.90;;;;;;4994533;28;20436;-66
2020/12/28 07:51:18;;;;;;;2.17;1.60;;;5.20;99.90;;;;;;4994069;28;20866;-63
2020/12/28 07:53:49;;;;;;;2.47;1.43;;;5.20;99.90;;;;;;4999888;28;20431;-64
2020/12/28 07:56:28;;;;;;;2.30;1.70;;;5.30;99.90;;;;;;5013969;28;20416;-66
2020/12/28 07:59:14;;;;;;;2.27;1.70;;;5.30;99.90;;;;;;5013843;28;20415;-66
2020/12/28 08:01:50;;;;;;;2.70;1.40;;;5.30;99.90;;;;;;4998899;28;20424;-65
2020/12/28 08:04:21;;;;;;;2.13;1.67;;;5.40;99.90;;;;;;4999285;28;20454;-64
2020/12/28 08:06:47;;;;;;;2.67;1.60;;;5.40;99.90;;;;;;5013385;28;20419;-63
2020/12/28 08:09:13;;;;;;;2.60;1.67;;;5.40;99.90;;;;;;5013641;28;20419;-65
2020/12/28 08:11:38;;;;;;;2.00;1.80;;;5.40;99.90;;;;;;5031026;28;20204;-63
2020/12/28 08:14:10;;;;;;;2.03;1.83;;;5.40;99.90;;;;;;5032109;28;20187;-65
2020/12/28 08:16:36;;;;;;;1.93;1.53;;;5.50;99.90;;;;;;5032916;28;20263;-65
2020/12/28 08:19:03;;;;;;;2.87;1.60;;;5.50;99.90;;;;;;5032913;28;20473;-63
2020/12/28 08:21:41;;;;;;;1.70;1.30;;;5.60;99.90;;;;;;5032751;28;20190;-63
2020/12/28 08:24:16;;;;;;;2.33;1.60;;;5.70;99.90;;;;;;5031450;28;20772;-67
2020/12/28 08:26:43;;;;;;;4.53;2.00;;;5.70;99.90;;;;;;5033039;28;20426;-65
2020/12/28 08:29:10;;;;;;;3.07;1.87;;;5.60;99.90;;;;;;5032805;28;20434;-66
2020/12/28 08:31:36;;;;;;;4.73;1.80;;;5.70;99.90;;;;;;5031524;28;20556;-68
2020/12/28 08:34:12;;;;;;;2.37;1.87;;;5.60;99.90;;;;;;5013098;28;20415;-66
2020/12/28 08:36:50;;;;;;;4.80;2.17;;;5.60;99.90;;;;;;5031722;28;20413;-66
2020/12/28 08:39:18;;;;;;;3.40;2.30;;;5.70;99.90;;;;;;5032907;28;20414;-67
2020/12/28 08:41:51;;;;;;;1.40;1.30;;;5.70;99.90;;;;;;5032481;28;20781;-66
2020/12/28 08:44:40;;;;;;;3.43;2.10;;;5.80;99.90;;;;;;5032008;28;20497;-68
2020/12/28 08:47:12;;;;;;;3.50;1.70;;;5.80;99.90;;;;;;5026178;28;20418;-66
2020/12/28 08:49:41;;;;;;;6.83;2.37;;;5.80;99.90;;;;;;5016315;28;20427;-65
2020/12/28 08:52:08;;;;;;;3.03;2.00;;;5.80;99.90;;;;;;5012637;28;20513;-66
2020/12/28 08:54:34;;;;;;;3.37;2.27;;;5.80;99.90;;;;;;5012684;28;20426;-66
2020/12/28 08:57:00;;;;;;;4.83;2.23;;;5.70;99.90;;;;;;5012851;28;20416;-67
2020/12/28 08:59:25;;;;;;;2.53;2.13;;;5.80;99.90;;;;;;5012741;28;20168;-67
2020/12/28 09:01:52;;;;;;;3.73;2.60;;;5.80;99.90;;;;;;5012654;28;20174;-65
2020/12/28 09:04:18;;;;;;;3.47;2.60;;;5.80;99.90;;;;;;5014048;28;20235;-67
2020/12/28 09:06:44;;;;;;;3.03;2.60;;;5.80;99.90;;;;;;5012145;28;20419;-64
2020/12/28 09:09:09;;;;;;;5.77;2.60;;;5.80;99.90;;;;;;5020022;28;20476;-65
2020/12/28 09:11:35;;;;;;;3.83;2.43;;;5.90;99.90;;;;;;5031949;28;20203;-66
2020/12/28 09:14:01;;;;;;;3.27;2.80;;;6.00;99.90;;;;;;5032101;28;20179;-65
2020/12/28 09:16:26;;;;;;;5.17;3.17;;;6.00;99.90;;;;;;5032136;28;20184;-67
2020/12/28 09:18:52;;;;;;;4.77;3.60;;;6.00;99.90;;;;;;5028101;28;20211;-68
2020/12/28 09:21:18;;;;;;;4.53;3.20;;;6.00;99.90;;;;;;5012318;28;20582;-68
2020/12/28 09:23:43;;;;;;;4.30;3.37;;;6.10;99.90;;;;;;5012027;28;20649;-65
2020/12/28 09:26:09;;;;;;;5.70;3.50;;;6.00;99.90;;;;;;5011971;28;20207;-66
2020/12/28 09:28:34;;;;;;;3.93;3.40;;;6.20;99.90;;;;;;5012259;28;20180;-65
2020/12/28 09:31:00;;;;;;;9.47;5.13;;;6.10;99.90;;;;;;5012192;28;20207;-67
2020/12/28 09:33:25;;;;;;;4.83;3.57;;;6.10;99.90;;;;;;5011924;28;20191;-65
2020/12/28 09:35:51;;;;;;;4.20;2.70;;;6.10;99.90;;;;;;5012311;28;20172;-65
2020/12/28 09:38:17;;;;;;;2.37;2.17;;;6.10;99.90;;;;;;5012944;28;20672;-67
2020/12/28 09:40:42;;;;;;;3.93;2.50;;;6.20;99.90;;;;;;4998258;28;20184;-67
2020/12/28 09:43:08;;;;;;;2.80;2.50;;;6.20;99.90;;;;;;5011701;28;20243;-66
2020/12/28 09:45:36;;;;;;;3.27;2.77;;;6.10;99.90;;;;;;5025083;28;20172;-66
2020/12/28 09:48:20;;;;;;;3.30;2.20;;;6.10;99.90;;;;;;4784742;27;7841394;-64
2020/12/28 09:50:47;;;;;;;3.40;2.33;;;6.20;99.90;;;;;;5068086;28;20182;-64
2020/12/28 09:53:13;;;;;;;5.83;3.90;;;6.10;99.90;;;;;;5067618;28;20416;-63
2020/12/28 09:55:38;;;;;;;5.90;2.90;;;6.10;99.90;;;;;;5067984;28;20492;-65
2020/12/28 09:58:04;;;;;;;3.67;2.90;;;6.10;99.90;;;;;;5052789;28;20584;-64
2020/12/28 10:00:29;;;;;;;2.93;2.63;;;6.10;99.90;;;;;;5047586;28;20175;-64
2020/12/28 10:03:02;;;;;;;5.50;4.00;;;6.10;99.90;;;;;;5047891;28;20171;-66
2020/12/28 10:05:28;;;;;;;7.50;3.80;;;6.10;99.90;;;;;;5047789;28;20261;-66
2020/12/28 10:07:53;;;;;;;2.43;2.20;;;6.10;99.90;;;;;;5047668;28;20548;-65
2020/12/28 10:10:19;;;;;;;3.47;2.60;;;6.20;99.90;;;;;;5047777;28;20528;-66
2020/12/28 10:12:44;;;;;;;5.87;3.50;;;6.20;99.90;;;;;;5047482;28;20179;-64
2020/12/28 10:15:10;;;;;;;3.27;2.97;;;6.20;99.90;;;;;;5047549;28;20167;-64
2020/12/28 10:17:36;;;;;;;4.67;2.60;;;6.30;99.90;;;;;;5047469;28;20544;-67
2020/12/28 10:20:02;;;;;;;2.93;2.63;;;6.30;99.90;;;;;;5047555;28;20179;-65
2020/12/28 10:22:28;;;;;;;3.50;2.40;;;6.40;99.90;;;;;;5047164;28;20183;-66
2020/12/28 10:24:54;;;;;;;2.50;2.30;;;6.50;99.90;;;;;;5052446;28;20417;-65
2020/12/28 10:27:20;;;;;;;4.37;2.97;;;6.50;99.90;;;;;;5054838;28;20821;-67
2020/12/28 10:29:46;;;;;;;3.97;2.70;;;6.50;99.90;;;;;;5045939;28;20547;-67
2020/12/28 10:32:12;;;;;;;5.70;2.27;;;6.50;99.90;;;;;;5052270;28;20173;-66
2020/12/28 10:34:37;;;;;;;4.80;2.70;;;6.60;99.90;;;;;;5067006;28;20775;-68
2020/12/28 10:37:03;;;;;;;4.77;2.30;;;6.50;99.90;;;;;;5067065;28;20179;-64
2020/12/28 10:39:29;;;;;;;2.13;1.77;;;6.50;99.90;;;;;;5065829;28;20190;-66
2020/12/28 10:41:54;;;;;;;2.17;1.80;;;6.40;99.90;;;;;;5045928;28;20286;-66
2020/12/28 10:44:21;;;;;;;2.17;1.87;;;6.30;99.90;;;;;;5051573;28;20168;-68
2020/12/28 10:46:47;;;;;;;2.40;2.00;;;6.30;99.90;;;;;;5055133;28;20249;-68
2020/12/28 10:49:12;;;;;;;3.10;2.60;;;6.40;99.90;;;;;;5066994;28;20452;-68
2020/12/28 10:51:38;;;;;;;5.50;3.07;;;6.40;99.90;;;;;;5066979;28;20179;-66
2020/12/28 10:54:04;;;;;;;3.13;1.90;;;6.50;99.90;;;;;;5066858;28;20216;-67
2020/12/28 10:56:30;;;;;;;2.80;1.47;;;6.50;99.90;;;;;;5066780;28;20178;-67
2020/12/28 10:58:57;;;;;;;3.37;2.00;;;6.40;99.90;;;;;;5055492;28;20629;-65
2020/12/28 11:01:24;;;;;;;2.17;1.80;;;6.40;99.90;;;;;;5053669;28;20504;-66
2020/12/28 11:03:51;;;;;;;2.90;2.07;;;6.50;99.90;;;;;;5053303;28;20421;-65
2020/12/28 11:06:21;;;;;;;3.80;1.60;;;6.50;99.90;;;;;;5053494;28;20488;-66
2020/12/28 11:08:48;;;;;;;1.97;1.80;;;6.40;99.90;;;;;;5053694;28;20418;-67
2020/12/28 11:11:16;;;;;;;3.97;2.17;;;6.30;99.90;;;;;;5053142;28;20547;-66
2020/12/28 11:13:42;;;;;;;4.07;2.43;;;6.30;99.90;;;;;;5053302;28;20414;-64
2020/12/28 11:16:08;;;;;;;4.00;2.07;;;6.20;99.90;;;;;;5053367;28;20762;-68
2020/12/28 11:18:33;;;;;;;2.00;1.80;;;6.30;99.90;;;;;;5053156;28;20421;-65
2020/12/28 11:21:00;;;;;;;2.30;2.07;;;6.20;99.90;;;;;;5053090;28;20567;-65
2020/12/28 11:23:26;;;;;;;2.63;2.20;;;6.20;99.90;;;;;;5053297;28;20183;-68
2020/12/28 11:25:51;;;;;;;2.17;1.80;;;6.20;99.90;;;;;;5053054;28;20433;-67
2020/12/28 11:28:17;;;;;;;1.63;1.53;;;6.20;99.90;;;;;;5053159;28;20171;-67
2020/12/28 11:30:42;;;;;;;2.20;1.70;;;6.10;99.90;;;;;;5053342;28;20175;-64
2020/12/28 11:33:08;;;;;;;3.43;1.97;;;6.10;99.90;;;;;;5052496;28;20175;-66
2020/12/28 11:35:34;;;;;;;2.00;1.80;;;6.00;99.90;;;;;;5035040;28;20500;-66
2020/12/28 11:37:59;;;;;;;1.53;1.43;;;6.00;99.90;;;;;;5052756;28;20193;-63
2020/12/28 11:40:25;;;;;;;3.27;1.87;;;6.00;99.90;;;;;;5053179;28;20220;-67
2020/12/28 11:42:51;;;;;;;2.83;1.80;;;6.00;99.90;;;;;;5052756;28;20292;-65
2020/12/28 11:45:17;;;;;;;1.93;1.47;;;6.00;99.90;;;;;;5052395;28;20182;-67
2020/12/28 11:47:42;;;;;;;1.90;1.60;;;6.00;99.90;;;;;;5052746;28;20225;-64
2020/12/28 11:50:08;;;;;;;2.63;2.10;;;5.90;99.90;;;;;;5052560;28;20191;-67
2020/12/28 11:52:34;;;;;;;4.23;1.80;;;5.90;99.90;;;;;;5052427;28;20221;-65
2020/12/28 11:55:00;;;;;;;2.63;1.70;;;5.80;99.90;;;;;;5052741;28;20170;-67
2020/12/28 11:57:26;;;;;;;2.67;1.50;;;5.80;99.90;;;;;;5052215;28;20175;-65
2020/12/28 11:59:51;;;;;;;0.67;0.67;;;5.70;99.90;;;;;;5052329;28;20183;-65
2020/12/28 12:02:21;;;;;;;1.80;1.00;;;5.60;99.90;;;;;;5052173;28;20179;-64
2020/12/28 12:04:51;;;;;;;0.80;0.60;;;5.40;99.90;;;;;;5052294;28;20186;-66
2020/12/28 12:07:19;;;;;;;0.70;0.60;;;5.20;99.90;;;;;;5034239;28;20489;-67
2020/12/28 12:09:45;;;;;;;0.77;0.60;;;5.10;99.90;;;;;;5051171;28;20441;-66
2020/12/28 12:12:12;;;;;;;0.83;0.60;;;4.90;99.90;;;;;;5052159;28;20417;-67
2020/12/28 12:14:37;;;;;;;0.90;0.80;;;4.90;99.90;;;;;;5052608;28;20418;-68
2020/12/28 12:17:03;;;;;;;0.83;0.50;;;4.90;99.90;;;;;;5051977;28;20410;-68
2020/12/28 12:19:29;;;;;;;3.23;0.60;;;4.90;99.90;;;;;;5052098;28;20183;-69
2020/12/28 12:21:54;;;;;;;0.40;0.40;;;4.90;99.90;;;;;;5051722;28;20625;-66
2020/12/28 12:24:20;;;;;;;0.30;0.30;;;4.80;99.90;;;;;;5051849;28;20175;-68
2020/12/28 12:26:45;;;;;;;0.77;0.43;;;4.80;99.90;;;;;;5051727;28;20195;-68
2020/12/28 12:29:11;;;;;;;0.40;0.40;;;4.80;99.90;;;;;;5051886;28;20179;-65
2020/12/28 12:31:37;;;;;;;0.60;0.50;;;4.80;99.90;;;;;;5051758;28;20182;-62
2020/12/28 12:34:02;;;;;;;0.83;0.40;;;4.90;99.90;;;;;;5051589;28;20202;-64
2020/12/28 12:36:28;;;;;;;1.00;0.60;;;4.80;99.90;;;;;;5052044;28;20241;-63
2020/12/28 12:38:54;;;;;;;1.07;0.90;;;4.80;99.90;;;;;;5051632;28;20187;-63
2020/12/28 12:41:20;;;;;;;1.23;0.50;;;4.80;99.90;;;;;;5051649;28;20701;-64
2020/12/28 12:43:47;;;;;;;2.10;0.50;;;4.80;99.90;;;;;;5051638;28;20650;-65
2020/12/28 12:46:13;;;;;;;0.40;0.40;;;4.90;99.90;;;;;;5051823;28;20992;-66
2020/12/28 12:48:41;;;;;;;0.50;0.50;;;4.90;99.90;;;;;;5051580;28;20449;-62
2020/12/28 12:51:08;;;;;;;1.23;0.70;;;4.90;99.90;;;;;;5051008;28;20965;-66
2020/12/28 12:53:33;;;;;;;0.83;0.77;;;4.90;99.90;;;;;;5051295;28;20462;-62
2020/12/28 12:55:59;;;;;;;0.60;0.60;;;4.90;99.90;;;;;;5051262;28;20770;-63